Bani, Dominican Republic
Current Conditions -  °F | °C
As of 6:00 AM on Friday 31 Oct 2014 (Local Time) from MDSD Reporting Station
Few Clouds Few Clouds  
Wind Chill: 73°   Ceiling: Unl
Heat Index: 73°   Visibility: 6mi
Dew Point: 72°   Wind: 5mph
Humidity: 94%   Direction: 360°N
Pressure: 29.8"   Gusts: NA
Location:  18.29°N, 70.33°W
Report Text: MDSD 311000Z 36004KT 9999 FEW018 23/22 Q1009
Loading
Personal Weather Stations






























Interactive Weather Map
Tropical Storm Tracking
New forecast layout! Learn more

10-Day Weather Forecast

Advertisements
Track Severe Weather on mobile